Kahuku, Hawaii
Current Conditions -  °F | °C
As of 3:44 PM on Thursday 27 Nov 2014 (Local Time) from PHHI Reporting Station
Scattered Clouds Scattered Clouds  
Wind Chill: 75°   Ceiling: Unl
Heat Index: 75°   Visibility: 10mi
Dew Point: 59°   Wind: 14mph
Humidity: 57%   Direction: 70°ENE
Pressure: 30.03"   Gusts: 23mph
Location:  21.67°N, 157.94°W
Report Text: PHHI 280144Z AUTO 07012G20KT 10SM SCT039 24/15 A3003 RMK AO2 WSHFT 41
Loading
Personal Weather Stations






























Interactive Weather Map New forecast layout! Learn more

10-Day Weather Forecast

Advertisements
Track Severe Weather on mobile